Sklinnabanken — LJQM — position and weather

sailwx.info

Track history (hours):
 
Tides and Currents Weather Stations Pressure Air Temp Water Temp Dewpoint Dewpoint Depression Visibility Wind Speed Wind Dir Waves Ship Positions

Sklinnabanken

Last reported at 2017-Jun-23 13:30 UTC. Time now 2017-Jun-23 13:58 UTC.
Position N 62°28' E 006°07'.

Length 28 m; draft 6 m.

Type: Fishing. MMSI: 259648000.

Date/timePositionNaut miles runAvg speedWind from/ knotsBaromVisibWave heightAir tempDewpointWater temp
2017-Jun-23 13:30N 62°28' E 006°07'0 0.0
2017-Jun-23 13:00N 62°28' E 006°07'0 0.0
2017-Jun-23 12:30N 62°28' E 006°07'0 0.0
2017-Jun-23 12:00N 62°28' E 006°07'0 0.0
2017-Jun-23 11:30N 62°28' E 006°07'0 0.0
2017-Jun-23 10:59N 62°28' E 006°07'0 0.0
2017-Jun-23 10:30N 62°28' E 006°07'0 0.0
2017-Jun-23 10:00N 62°28' E 006°07'0 0.0
2017-Jun-23 09:30N 62°28' E 006°07'0 0.0
2017-Jun-23 09:00N 62°28' E 006°07'0 0.0
2017-Jun-23 08:30N 62°28' E 006°07'0 0.0
2017-Jun-23 08:00N 62°28' E 006°07'0 0.0
2017-Jun-23 07:30N 62°28' E 006°07'0 0.0
2017-Jun-23 07:00N 62°28' E 006°07'0 0.0
2017-Jun-23 06:30N 62°28' E 006°07'0 0.0
2017-Jun-23 06:00N 62°28' E 006°07'0 0.0
2017-Jun-23 05:30N 62°28' E 006°07'0 0.0
2017-Jun-23 04:59N 62°28' E 006°07'0 0.0
2017-Jun-23 04:30N 62°28' E 006°07'0 0.0
2017-Jun-23 04:00N 62°28' E 006°07'0 0.0
2017-Jun-23 03:30N 62°28' E 006°07'0 0.0
2017-Jun-23 03:00N 62°28' E 006°07'0 0.0
2017-Jun-23 02:30N 62°28' E 006°07'0 0.0
2017-Jun-23 02:00N 62°28' E 006°07'0 0.0
2017-Jun-23 01:30N 62°28' E 006°07'0 0.0
2017-Jun-23 01:00N 62°28' E 006°07'0 0.0
2017-Jun-23 00:30N 62°28' E 006°07'0 0.0
2017-Jun-23 00:00N 62°28' E 006°07'0 0.0
2017-Jun-22 23:30N 62°28' E 006°07'0 0.0
2017-Jun-22 23:00N 62°28' E 006°07'0 0.0
2017-Jun-22 22:30N 62°28' E 006°07'0 0.0
2017-Jun-22 22:00N 62°28' E 006°07'0 0.0
2017-Jun-22 21:30N 62°28' E 006°07'0 0.0
2017-Jun-22 21:00N 62°28' E 006°07'0 0.0
2017-Jun-22 20:30N 62°28' E 006°07'0 0.0
2017-Jun-22 20:00N 62°28' E 006°07'0 0.0
2017-Jun-22 19:30N 62°28' E 006°07'0 0.0
2017-Jun-22 19:00N 62°28' E 006°07'0 0.0
2017-Jun-22 18:30N 62°28' E 006°07'0 0.0
2017-Jun-22 18:00N 62°28' E 006°07'0 0.0
2017-Jun-22 17:30N 62°28' E 006°07'0 0.0
2017-Jun-22 17:00N 62°28' E 006°07'0 0.0
2017-Jun-22 16:30N 62°28' E 006°07'2 3.5
2017-Jun-22 16:00N 62°28' E 006°03'5 9.4
2017-Jun-22 15:30N 62°26' E 005°54'4 8.9
2017-Jun-22 15:00N 62°22' E 005°48'4 8.2
2017-Jun-22 14:30N 62°19' E 005°43'9 9.1
2017-Jun-22 13:30N 62°17' E 005°24'5 9.2
2017-Jun-22 13:00N 62°15' E 005°15'5 9.1
2017-Jun-22 12:30N 62°12' E 005°07'4 8.6
2017-Jun-22 12:00N 62°08' E 005°05'5 9.5
2017-Jun-22 11:30N 62°04' E 005°08'4 9.1
2017-Jun-22 11:00N 61°59' E 005°09'0 0.9
2017-Jun-22 10:30N 61°59' E 005°08'1 1.6
2017-Jun-22 10:00N 61°58' E 005°09'0 0.1
2017-Jun-22 09:30N 61°58' E 005°08'0 0.0
2017-Jun-22 09:00N 61°58' E 005°08'0 0.0
2017-Jun-22 08:30N 61°58' E 005°08'0 0.0
2017-Jun-22 08:00N 61°58' E 005°08'0 0.0
2017-Jun-22 07:30N 61°58' E 005°08'0 0.0
2017-Jun-22 07:00N 61°58' E 005°08'0 0.0
2017-Jun-22 06:30N 61°58' E 005°08'0 0.0
2017-Jun-22 06:00N 61°58' E 005°08'0 0.0
2017-Jun-22 05:30N 61°58' E 005°08'0 0.0
2017-Jun-22 05:00N 61°58' E 005°08'0 0.0
2017-Jun-22 04:30N 61°58' E 005°08'0 0.0
2017-Jun-22 04:00N 61°58' E 005°08'0 0.0
2017-Jun-22 03:29N 61°58' E 005°08'0 0.0
2017-Jun-22 03:00N 61°58' E 005°08'0 0.0
2017-Jun-22 02:30N 61°58' E 005°08'0 0.0
2017-Jun-22 02:00N 61°58' E 005°08'0 0.0
2017-Jun-22 01:30N 61°58' E 005°08'0 0.0
2017-Jun-22 01:00N 61°58' E 005°08'0 0.0
2017-Jun-22 00:30N 61°58' E 005°08'0 0.0
2017-Jun-22 00:00N 61°58' E 005°08'0 0.0
2017-Jun-21 23:30N 61°58' E 005°08'0 0.0
2017-Jun-21 23:00N 61°58' E 005°08'0 0.0
2017-Jun-21 22:30N 61°58' E 005°08'0 0.0
2017-Jun-21 22:00N 61°58' E 005°08'0 0.0
2017-Jun-21 21:30N 61°58' E 005°08'0 0.0
2017-Jun-21 20:59N 61°58' E 005°08'0 0.0
2017-Jun-21 20:30N 61°58' E 005°08'0 0.0
2017-Jun-21 20:00N 61°58' E 005°08'0 0.0
2017-Jun-21 19:29N 61°58' E 005°08'0 0.0
2017-Jun-21 19:00N 61°58' E 005°08'0 0.0
2017-Jun-21 18:30N 61°58' E 005°08'0 0.0
2017-Jun-21 18:00N 61°58' E 005°08'0 0.0
2017-Jun-21 17:30N 61°58' E 005°08'0 0.0
2017-Jun-21 16:59N 61°58' E 005°08'0 0.0
2017-Jun-21 16:30N 61°58' E 005°08'0 0.0
2017-Jun-21 16:00N 61°58' E 005°08'0 0.0
2017-Jun-21 15:30N 61°58' E 005°08'0 0.0
2017-Jun-21 15:00N 61°58' E 005°08'0 0.0
2017-Jun-21 14:30N 61°58' E 005°08'0 0.0
2017-Jun-21 13:30N 61°58' E 005°08'0 0.0
2017-Jun-21 13:00N 61°58' E 005°08'0 0.0
2017-Jun-21 12:30N 61°58' E 005°08'0 0.0
2017-Jun-21 11:59N 61°58' E 005°08'0 0.1
2017-Jun-21 11:29N 61°58' E 005°08'0 0.1
2017-Jun-21 11:00N 61°58' E 005°09'1 0.1
2017-Jun-20 20:46N 61°59' E 005°08'0 0.0
2017-Jun-20 13:27N 61°59' E 005°08'0 0.0
2017-Jun-20 12:38N 61°59' E 005°08'0 0.0
2017-Jun-20 08:44N 61°59' E 005°08'0 0.0
2017-Jun-19 12:51N 61°59' E 005°08'0 0.0
2017-Jun-19 12:30N 61°59' E 005°08'0 0.0
2017-Jun-19 12:00N 61°59' E 005°08'0 0.0
2017-Jun-19 11:30N 61°59' E 005°08'0 0.0
2017-Jun-19 11:00N 61°59' E 005°08'0 0.0
2017-Jun-19 10:30N 61°59' E 005°08'0 0.0
2017-Jun-19 10:00N 61°59' E 005°08'0 0.0
2017-Jun-19 09:30N 61°59' E 005°08'0 0.0
2017-Jun-19 09:00N 61°59' E 005°08'0 0.0
2017-Jun-19 08:30N 61°59' E 005°08'0 0.0
2017-Jun-19 08:00N 61°59' E 005°08'0 0.0
2017-Jun-19 07:30N 61°59' E 005°08'0 0.0
2017-Jun-19 07:00N 61°59' E 005°08'0 0.0
2017-Jun-19 06:30N 61°59' E 005°08'0 0.0
2017-Jun-19 06:00N 61°59' E 005°08'0 0.0
2017-Jun-19 05:29N 61°59' E 005°08'0 0.0
2017-Jun-19 05:00N 61°59' E 005°08'0 0.0
2017-Jun-19 04:29N 61°59' E 005°08'0 0.0
2017-Jun-19 04:00N 61°59' E 005°08'0 0.0
2017-Jun-19 03:30N 61°59' E 005°08'0 0.0
2017-Jun-19 03:00N 61°59' E 005°08'0 0.0
2017-Jun-19 02:30N 61°59' E 005°08'0 0.0
2017-Jun-19 02:00N 61°59' E 005°08'0 0.0
2017-Jun-19 01:29N 61°59' E 005°08'0 0.0
2017-Jun-19 01:00N 61°59' E 005°08'0 0.0
2017-Jun-19 00:30N 61°59' E 005°08'0 0.0
2017-Jun-19 00:00N 61°59' E 005°08'0 0.0
2017-Jun-18 23:30N 61°59' E 005°08'0 0.0
2017-Jun-18 23:00N 61°59' E 005°08'1 2.3
2017-Jun-18 22:29N 62°00' E 005°10'4 8.1
2017-Jun-18 22:00N 62°04' E 005°08'4 7.8
2017-Jun-18 21:30N 62°08' E 005°05'4 6.9
2017-Jun-18 21:00N 62°11' E 005°04'4 7.1
2017-Jun-18 20:30N 62°13' E 005°10'4 7.2
2017-Jun-18 20:00N 62°15' E 005°17'4 7.2
2017-Jun-18 19:30N 62°17' E 005°24'4 7.2
2017-Jun-18 19:00N 62°17' E 005°32'4 7.6
2017-Jun-18 18:30N 62°19' E 005°39'3 6.6
2017-Jun-18 18:00N 62°21' E 005°45'4 8.1
2017-Jun-18 17:30N 62°24' E 005°49'4 7.5
2017-Jun-18 17:00N 62°26' E 005°56'4 7.3
2017-Jun-18 16:30N 62°28' E 006°03'2 3.7
2017-Jun-18 16:00N 62°28' E 006°07'0 0.0
2017-Jun-18 15:30N 62°28' E 006°07'0 0.0
2017-Jun-18 15:00N 62°28' E 006°07'0 0.0
2017-Jun-18 14:30N 62°28' E 006°07'0 0.0
2017-Jun-18 14:00N 62°28' E 006°07'0 0.0
2017-Jun-18 13:30N 62°28' E 006°07'0 0.0
2017-Jun-18 13:00N 62°28' E 006°07'0 0.0
2017-Jun-18 12:30N 62°28' E 006°07'0 0.0
2017-Jun-18 12:00N 62°28' E 006°07'0 0.0
2017-Jun-18 11:30N 62°28' E 006°07'0 0.0
2017-Jun-18 11:00N 62°28' E 006°07'0 0.0
2017-Jun-18 10:29N 62°28' E 006°07'0 0.0
2017-Jun-18 10:00N 62°28' E 006°07'0 0.0
2017-Jun-18 09:30N 62°28' E 006°07'0 0.0
2017-Jun-18 09:00N 62°28' E 006°07'0 0.0
2017-Jun-18 08:30N 62°28' E 006°07'0 0.0
2017-Jun-18 08:00N 62°28' E 006°07'0 0.0
2017-Jun-18 07:30N 62°28' E 006°07'0 0.0
2017-Jun-18 07:00N 62°28' E 006°07'0 0.0
2017-Jun-18 06:29N 62°28' E 006°07'0 0.0
2017-Jun-18 06:00N 62°28' E 006°07'0 0.0
2017-Jun-18 05:30N 62°28' E 006°07'0 0.0
2017-Jun-18 05:00N 62°28' E 006°07'0 0.0
2017-Jun-18 04:30N 62°28' E 006°07'0 0.0
2017-Jun-18 04:00N 62°28' E 006°07'0 0.0
2017-Jun-18 03:30N 62°28' E 006°07'0 0.0
2017-Jun-18 03:00N 62°28' E 006°07'0 0.0
2017-Jun-18 02:30N 62°28' E 006°07'0 0.0
2017-Jun-18 02:00N 62°28' E 006°07'0 0.0
2017-Jun-18 01:30N 62°28' E 006°07'0 0.0
2017-Jun-18 01:00N 62°28' E 006°07'0 0.0
2017-Jun-18 00:30N 62°28' E 006°07'0 0.0
2017-Jun-18 00:00N 62°28' E 006°07'0 0.0
2017-Jun-17 23:30N 62°28' E 006°07'0 0.0
2017-Jun-17 22:59N 62°28' E 006°07'0 0.0
2017-Jun-17 22:30N 62°28' E 006°07'0 0.0
2017-Jun-17 22:00N 62°28' E 006°07'0 0.0
2017-Jun-17 21:30N 62°28' E 006°07'0 0.0
2017-Jun-17 21:00N 62°28' E 006°07'0 0.0
2017-Jun-17 20:30N 62°28' E 006°07'0 0.0
2017-Jun-17 20:00N 62°28' E 006°07'0 0.0
2017-Jun-17 19:29N 62°28' E 006°07'0 0.0
2017-Jun-17 19:00N 62°28' E 006°07'0 0.0
2017-Jun-17 18:30N 62°28' E 006°07'0 0.0
2017-Jun-17 18:00N 62°28' E 006°07'0 0.0
2017-Jun-17 17:30N 62°28' E 006°07'0 0.0
2017-Jun-17 17:00N 62°28' E 006°07'0 0.0
2017-Jun-17 16:30N 62°28' E 006°07'0 0.0
2017-Jun-17 16:00N 62°28' E 006°07'0 0.0
2017-Jun-17 15:30N 62°28' E 006°07'0 0.0
2017-Jun-17 15:00N 62°28' E 006°07'0 0.0
2017-Jun-17 14:30N 62°28' E 006°07'0 0.0
2017-Jun-17 13:30N 62°28' E 006°07'0 0.0
2017-Jun-17 13:00N 62°28' E 006°07'0 0.0
2017-Jun-17 12:30N 62°28' E 006°07'0 0.0
2017-Jun-17 12:00N 62°28' E 006°07'0 0.0
2017-Jun-17 11:30N 62°28' E 006°07'0 0.0
2017-Jun-17 11:00N 62°28' E 006°07'0 0.0
2017-Jun-17 10:30N 62°28' E 006°07'0 0.0
2017-Jun-17 10:00N 62°28' E 006°07'0 0.0
2017-Jun-17 09:30N 62°28' E 006°07'0 0.0
2017-Jun-17 09:00N 62°28' E 006°07'0 0.0
2017-Jun-17 08:30N 62°28' E 006°07'0 0.0
2017-Jun-17 08:00N 62°28' E 006°07'0 0.0
2017-Jun-17 07:29N 62°28' E 006°07'0 0.0
2017-Jun-17 07:00N 62°28' E 006°07'0 0.0
2017-Jun-17 06:30N 62°28' E 006°07'0 0.0
2017-Jun-17 06:00N 62°28' E 006°07'0 0.0
2017-Jun-17 05:30N 62°28' E 006°07'0 0.0
2017-Jun-17 05:00N 62°28' E 006°07'0 0.0
2017-Jun-17 04:29N 62°28' E 006°07'0 0.0
2017-Jun-17 04:00N 62°28' E 006°07'0 0.0
2017-Jun-17 03:30N 62°28' E 006°07'0 0.0
2017-Jun-17 03:00N 62°28' E 006°07'0 0.0
2017-Jun-17 02:30N 62°28' E 006°07'0 0.0
2017-Jun-17 02:00N 62°28' E 006°07'0 0.0
2017-Jun-17 01:30N 62°28' E 006°07'0 0.0
2017-Jun-17 01:00N 62°28' E 006°07'0 0.0
2017-Jun-17 00:30N 62°28' E 006°07'0 0.0
2017-Jun-17 00:00N 62°28' E 006°07'0 0.0
2017-Jun-16 23:30N 62°28' E 006°07'0 0.0
2017-Jun-16 23:00N 62°28' E 006°07'0 0.0
2017-Jun-16 22:30N 62°28' E 006°07'0 0.0
2017-Jun-16 22:00N 62°28' E 006°07'0 0.0
2017-Jun-16 21:30N 62°28' E 006°07'0 0.0
2017-Jun-16 20:59N 62°28' E 006°07'0 0.0
2017-Jun-16 20:30N 62°28' E 006°07'0 0.0
2017-Jun-16 20:00N 62°28' E 006°07'0 0.0
2017-Jun-16 19:30N 62°28' E 006°07'0 0.0
2017-Jun-16 19:00N 62°28' E 006°07'0 0.0
2017-Jun-16 18:30N 62°28' E 006°07'0 0.0
2017-Jun-16 18:00N 62°28' E 006°07'0 0.0
2017-Jun-16 17:30N 62°28' E 006°07'0 0.0
2017-Jun-16 17:00N 62°28' E 006°07'0 0.0
2017-Jun-16 16:30N 62°28' E 006°07'0 0.0
2017-Jun-16 16:00N 62°28' E 006°07'0 0.0
2017-Jun-16 15:30N 62°28' E 006°07'0 0.0
2017-Jun-16 15:00N 62°28' E 006°07'0 0.0
2017-Jun-16 14:00N 62°28' E 006°07'0 0.0
2017-Jun-16 13:30N 62°28' E 006°07'0 0.0
2017-Jun-16 13:00N 62°28' E 006°07'0 0.0
2017-Jun-16 12:30N 62°28' E 006°07'0 0.0
2017-Jun-16 12:00N 62°28' E 006°07'0 0.0
2017-Jun-16 11:30N 62°28' E 006°07'0 0.0
2017-Jun-16 10:59N 62°28' E 006°07'0 0.0
2017-Jun-16 10:29N 62°28' E 006°07'0 0.0
2017-Jun-16 10:00N 62°28' E 006°07'0 0.0
2017-Jun-16 09:30N 62°28' E 006°07'0 0.0
2017-Jun-16 09:00N 62°28' E 006°07'0 0.0
2017-Jun-16 08:30N 62°28' E 006°07'0 0.0
2017-Jun-16 08:00N 62°28' E 006°07'0 0.0
2017-Jun-16 07:30N 62°28' E 006°07'0 0.0
2017-Jun-16 07:00N 62°28' E 006°07'0 0.0
2017-Jun-16 06:30N 62°28' E 006°07'0 0.0
2017-Jun-16 06:00N 62°28' E 006°07'0 0.0
2017-Jun-16 05:30N 62°28' E 006°07'0 0.0
2017-Jun-16 04:59N 62°28' E 006°07'0 0.0
2017-Jun-16 04:30N 62°28' E 006°07'0 0.0
2017-Jun-16 04:00N 62°28' E 006°07'0 0.0
2017-Jun-16 03:30N 62°28' E 006°07'0 0.0
2017-Jun-16 03:00N 62°28' E 006°07'0 0.0
2017-Jun-16 02:30N 62°28' E 006°07'0 0.0
2017-Jun-16 02:00N 62°28' E 006°07'0 0.0
2017-Jun-16 01:29N 62°28' E 006°07'0 0.0
2017-Jun-16 01:00N 62°28' E 006°07'0 0.0
2017-Jun-16 00:30N 62°28' E 006°07'0 0.0
2017-Jun-16 00:00N 62°28' E 006°07'0 0.0
2017-Jun-15 23:30N 62°28' E 006°07'0 0.0
2017-Jun-15 23:00N 62°28' E 006°07'0 0.0
2017-Jun-15 22:29N 62°28' E 006°07'0 0.0
2017-Jun-15 22:00N 62°28' E 006°07'0 0.0
2017-Jun-15 21:30N 62°28' E 006°07'0 0.0
2017-Jun-15 21:00N 62°28' E 006°07'0 0.0
2017-Jun-15 20:30N 62°28' E 006°07'0 0.0
2017-Jun-15 20:00N 62°28' E 006°07'0 0.0
2017-Jun-15 19:30N 62°28' E 006°07'0 0.0
2017-Jun-15 19:00N 62°28' E 006°07'0 0.0
2017-Jun-15 18:30N 62°28' E 006°07'0 0.0
2017-Jun-15 18:00N 62°28' E 006°07'0 0.0
2017-Jun-15 17:30N 62°28' E 006°07'0 0.0
2017-Jun-15 17:00N 62°28' E 006°07'0 0.0
2017-Jun-15 16:30N 62°28' E 006°07'0 0.0
2017-Jun-15 16:00N 62°28' E 006°07'0 0.0
2017-Jun-15 15:30N 62°28' E 006°07'0 0.0
2017-Jun-15 15:00N 62°28' E 006°07'0 0.0
2017-Jun-15 14:30N 62°28' E 006°07'0 0.0
2017-Jun-15 13:30N 62°28' E 006°07'0 0.8
2017-Jun-15 12:59N 62°28' E 006°07'0 0.0
2017-Jun-15 12:30N 62°28' E 006°07'0 0.0
2017-Jun-15 12:00N 62°28' E 006°07'0 0.0
2017-Jun-15 11:30N 62°28' E 006°07'0 0.0
2017-Jun-15 11:00N 62°28' E 006°07'0 0.0
2017-Jun-15 10:30N 62°28' E 006°07'0 0.0
2017-Jun-15 09:59N 62°28' E 006°07'0 0.0
2017-Jun-15 09:29N 62°28' E 006°07'0 0.0
2017-Jun-15 09:00N 62°28' E 006°07'0 0.0
2017-Jun-15 08:30N 62°28' E 006°07'0 0.0
2017-Jun-15 08:00N 62°28' E 006°07'0 0.0
2017-Jun-15 07:30N 62°28' E 006°07'0 0.0
2017-Jun-15 07:00N 62°28' E 006°07'0 0.0
2017-Jun-15 06:30N 62°28' E 006°07'0 0.0
2017-Jun-15 06:00N 62°28' E 006°07'0 0.0
2017-Jun-15 05:30N 62°28' E 006°07'0 0.0
2017-Jun-15 04:59N 62°28' E 006°07'0 0.0
2017-Jun-15 04:30N 62°28' E 006°07'0 0.0
2017-Jun-15 04:00N 62°28' E 006°07'0 0.0
2017-Jun-15 03:29N 62°28' E 006°07'0 0.0
2017-Jun-15 03:00N 62°28' E 006°07'0 0.0
2017-Jun-15 02:30N 62°28' E 006°07'0 0.0
2017-Jun-15 02:00N 62°28' E 006°07'0 0.0
2017-Jun-15 01:30N 62°28' E 006°07'0 0.0
2017-Jun-15 01:00N 62°28' E 006°07'0 0.0
2017-Jun-15 00:30N 62°28' E 006°07'0 0.0
2017-Jun-15 00:00N 62°28' E 006°07'0 0.0
2017-Jun-14 23:30N 62°28' E 006°07'0 0.0
2017-Jun-14 23:00N 62°28' E 006°07'0 0.0
2017-Jun-14 22:30N 62°28' E 006°07'0 0.0
2017-Jun-14 22:00N 62°28' E 006°07'0 0.0
2017-Jun-14 21:30N 62°28' E 006°07'0 0.0
2017-Jun-14 20:59N 62°28' E 006°07'0 0.0
2017-Jun-14 20:30N 62°28' E 006°07'0 0.0
2017-Jun-14 20:00N 62°28' E 006°07'0 0.0
2017-Jun-14 19:29N 62°28' E 006°07'0 0.0
2017-Jun-14 19:00N 62°28' E 006°07'0 0.0
2017-Jun-14 18:30N 62°28' E 006°07'0 0.0
2017-Jun-14 18:00N 62°28' E 006°07'0 0.0
2017-Jun-14 17:30N 62°28' E 006°07'0 0.0
2017-Jun-14 17:00N 62°28' E 006°07'0 0.0
2017-Jun-14 16:30N 62°28' E 006°07'0 0.0
2017-Jun-14 16:00N 62°28' E 006°07'0 0.0
2017-Jun-14 15:29N 62°28' E 006°07'0 0.0
2017-Jun-14 15:00N 62°28' E 006°07'0 0.0
2017-Jun-14 13:59N 62°28' E 006°07'0 0.0
2017-Jun-14 13:30N 62°28' E 006°07'0 0.0
2017-Jun-14 13:00N 62°28' E 006°07'0 0.0
2017-Jun-14 12:30N 62°28' E 006°07'0 0.0
2017-Jun-14 12:00N 62°28' E 006°07'0 0.0
2017-Jun-14 11:30N 62°28' E 006°07'0 0.0
2017-Jun-14 11:00N 62°28' E 006°07'0 0.0
2017-Jun-14 10:29N 62°28' E 006°07'0 0.0
2017-Jun-14 10:00N 62°28' E 006°07'0 0.0
2017-Jun-14 09:30N 62°28' E 006°07'0 0.6
2017-Jun-14 09:00N 62°28' E 006°08'4 8.5
2017-Jun-14 08:30N 62°32' E 006°13'2 3.4
2017-Jun-14 08:00N 62°33' E 006°16'0 0.0
2017-Jun-14 07:30N 62°33' E 006°16'0 0.0
2017-Jun-14 07:00N 62°33' E 006°16'0 0.0
2017-Jun-14 06:30N 62°33' E 006°16'0 0.0
2017-Jun-14 06:00N 62°33' E 006°16'0 0.0
2017-Jun-14 05:30N 62°33' E 006°16'0 0.0
2017-Jun-14 04:59N 62°33' E 006°16'0 0.0
2017-Jun-14 04:30N 62°33' E 006°16'0 0.0
2017-Jun-14 04:00N 62°33' E 006°16'0 0.0
2017-Jun-14 03:30N 62°33' E 006°16'2 5.0
2017-Jun-14 03:00N 62°31' E 006°12'4 8.4
2017-Jun-14 02:30N 62°28' E 006°05'4 8.4
2017-Jun-14 02:00N 62°26' E 005°57'4 8.6
2017-Jun-14 01:30N 62°24' E 005°49'4 8.6
2017-Jun-14 01:00N 62°21' E 005°45'3 6.6
2017-Jun-14 00:30N 62°19' E 005°39'4 8.8
2017-Jun-14 00:00N 62°17' E 005°30'4 8.6
2017-Jun-13 23:30N 62°16' E 005°21'4 8.7
2017-Jun-13 23:00N 62°14' E 005°13'5 9.0
2017-Jun-13 22:30N 62°12' E 005°05'4 8.6
2017-Jun-13 22:00N 62°07' E 005°05'4 8.4
2017-Jun-13 21:30N 62°04' E 005°10'4 7.3
2017-Jun-13 21:00N 62°00' E 005°13'0 0.3
2017-Jun-13 20:30N 62°00' E 005°13'0 0.3
2017-Jun-13 20:00N 62°00' E 005°13'0 0.1
2017-Jun-13 19:30N 62°00' E 005°13'1 1.6
2017-Jun-13 19:00N 61°60' E 005°12'2 3.6
2017-Jun-13 18:30N 61°59' E 005°08'0 0.0
2017-Jun-13 18:00N 61°59' E 005°08'3 5.5
2017-Jun-13 17:30N 61°56' E 005°08'0 0.0
2017-Jun-13 16:59N 61°56' E 005°08'0 0.0
2017-Jun-13 16:30N 61°56' E 005°08'0 0.0
2017-Jun-13 16:00N 61°56' E 005°08'0 0.0
2017-Jun-13 15:30N 61°56' E 005°08'0 0.0
2017-Jun-13 15:00N 61°56' E 005°08'0 0.0
2017-Jun-13 14:30N 61°56' E 005°08'0 0.0
2017-Jun-13 13:30N 61°56' E 005°08'  
Track history (hours):
 
Tides and Currents Weather Stations Pressure Air Temp Water Temp Dewpoint Dewpoint Depression Visibility Wind Speed Wind Dir Waves Ship Positions

Sklinnabanken

Last reported at 2017-Jun-23 13:30 UTC. Time now 2017-Jun-23 13:58 UTC.
Position N 62°28' E 006°07'.

Length 28 m; draft 6 m.

Type: Fishing. MMSI: 259648000.

Date/timePositionNaut miles runAvg speedWind from/ knotsBaromVisibWave heightAir tempDewpointWater temp
2017-Jun-23 13:30N 62°28' E 006°07'0 0.0
2017-Jun-23 13:00N 62°28' E 006°07'0 0.0
2017-Jun-23 12:30N 62°28' E 006°07'0 0.0
2017-Jun-23 12:00N 62°28' E 006°07'0 0.0
2017-Jun-23 11:30N 62°28' E 006°07'0 0.0
2017-Jun-23 10:59N 62°28' E 006°07'0 0.0
2017-Jun-23 10:30N 62°28' E 006°07'0 0.0
2017-Jun-23 10:00N 62°28' E 006°07'0 0.0
2017-Jun-23 09:30N 62°28' E 006°07'0 0.0
2017-Jun-23 09:00N 62°28' E 006°07'0 0.0
2017-Jun-23 08:30N 62°28' E 006°07'0 0.0
2017-Jun-23 08:00N 62°28' E 006°07'0 0.0
2017-Jun-23 07:30N 62°28' E 006°07'0 0.0
2017-Jun-23 07:00N 62°28' E 006°07'0 0.0
2017-Jun-23 06:30N 62°28' E 006°07'0 0.0
2017-Jun-23 06:00N 62°28' E 006°07'0 0.0
2017-Jun-23 05:30N 62°28' E 006°07'0 0.0
2017-Jun-23 04:59N 62°28' E 006°07'0 0.0
2017-Jun-23 04:30N 62°28' E 006°07'0 0.0
2017-Jun-23 04:00N 62°28' E 006°07'0 0.0
2017-Jun-23 03:30N 62°28' E 006°07'0 0.0
2017-Jun-23 03:00N 62°28' E 006°07'0 0.0
2017-Jun-23 02:30N 62°28' E 006°07'0 0.0
2017-Jun-23 02:00N 62°28' E 006°07'0 0.0
2017-Jun-23 01:30N 62°28' E 006°07'0 0.0
2017-Jun-23 01:00N 62°28' E 006°07'0 0.0
2017-Jun-23 00:30N 62°28' E 006°07'0 0.0
2017-Jun-23 00:00N 62°28' E 006°07'0 0.0
2017-Jun-22 23:30N 62°28' E 006°07'0 0.0
2017-Jun-22 23:00N 62°28' E 006°07'0 0.0
2017-Jun-22 22:30N 62°28' E 006°07'0 0.0
2017-Jun-22 22:00N 62°28' E 006°07'0 0.0
2017-Jun-22 21:30N 62°28' E 006°07'0 0.0
2017-Jun-22 21:00N 62°28' E 006°07'0 0.0
2017-Jun-22 20:30N 62°28' E 006°07'0 0.0
2017-Jun-22 20:00N 62°28' E 006°07'0 0.0
2017-Jun-22 19:30N 62°28' E 006°07'0 0.0
2017-Jun-22 19:00N 62°28' E 006°07'0 0.0
2017-Jun-22 18:30N 62°28' E 006°07'0 0.0
2017-Jun-22 18:00N 62°28' E 006°07'0 0.0
2017-Jun-22 17:30N 62°28' E 006°07'0 0.0
2017-Jun-22 17:00N 62°28' E 006°07'0 0.0
2017-Jun-22 16:30N 62°28' E 006°07'2 3.5
2017-Jun-22 16:00N 62°28' E 006°03'5 9.4
2017-Jun-22 15:30N 62°26' E 005°54'4 8.9
2017-Jun-22 15:00N 62°22' E 005°48'4 8.2
2017-Jun-22 14:30N 62°19' E 005°43'9 9.1
2017-Jun-22 13:30N 62°17' E 005°24'5 9.2
2017-Jun-22 13:00N 62°15' E 005°15'5 9.1
2017-Jun-22 12:30N 62°12' E 005°07'4 8.6
2017-Jun-22 12:00N 62°08' E 005°05'5 9.5
2017-Jun-22 11:30N 62°04' E 005°08'4 9.1
2017-Jun-22 11:00N 61°59' E 005°09'0 0.9
2017-Jun-22 10:30N 61°59' E 005°08'1 1.6
2017-Jun-22 10:00N 61°58' E 005°09'0 0.1
2017-Jun-22 09:30N 61°58' E 005°08'0 0.0
2017-Jun-22 09:00N 61°58' E 005°08'0 0.0
2017-Jun-22 08:30N 61°58' E 005°08'0 0.0
2017-Jun-22 08:00N 61°58' E 005°08'0 0.0
2017-Jun-22 07:30N 61°58' E 005°08'0 0.0
2017-Jun-22 07:00N 61°58' E 005°08'0 0.0
2017-Jun-22 06:30N 61°58' E 005°08'0 0.0
2017-Jun-22 06:00N 61°58' E 005°08'0 0.0
2017-Jun-22 05:30N 61°58' E 005°08'0 0.0
2017-Jun-22 05:00N 61°58' E 005°08'0 0.0
2017-Jun-22 04:30N 61°58' E 005°08'0 0.0
2017-Jun-22 04:00N 61°58' E 005°08'0 0.0
2017-Jun-22 03:29N 61°58' E 005°08'0 0.0
2017-Jun-22 03:00N 61°58' E 005°08'0 0.0
2017-Jun-22 02:30N 61°58' E 005°08'0 0.0
2017-Jun-22 02:00N 61°58' E 005°08'0 0.0
2017-Jun-22 01:30N 61°58' E 005°08'0 0.0
2017-Jun-22 01:00N 61°58' E 005°08'0 0.0
2017-Jun-22 00:30N 61°58' E 005°08'0 0.0
2017-Jun-22 00:00N 61°58' E 005°08'0 0.0
2017-Jun-21 23:30N 61°58' E 005°08'0 0.0
2017-Jun-21 23:00N 61°58' E 005°08'0 0.0
2017-Jun-21 22:30N 61°58' E 005°08'0 0.0
2017-Jun-21 22:00N 61°58' E 005°08'0 0.0
2017-Jun-21 21:30N 61°58' E 005°08'0 0.0
2017-Jun-21 20:59N 61°58' E 005°08'0 0.0
2017-Jun-21 20:30N 61°58' E 005°08'0 0.0
2017-Jun-21 20:00N 61°58' E 005°08'0 0.0
2017-Jun-21 19:29N 61°58' E 005°08'0 0.0
2017-Jun-21 19:00N 61°58' E 005°08'0 0.0
2017-Jun-21 18:30N 61°58' E 005°08'0 0.0
2017-Jun-21 18:00N 61°58' E 005°08'0 0.0
2017-Jun-21 17:30N 61°58' E 005°08'0 0.0
2017-Jun-21 16:59N 61°58' E 005°08'0 0.0
2017-Jun-21 16:30N 61°58' E 005°08'0 0.0
2017-Jun-21 16:00N 61°58' E 005°08'0 0.0
2017-Jun-21 15:30N 61°58' E 005°08'0 0.0
2017-Jun-21 15:00N 61°58' E 005°08'0 0.0
2017-Jun-21 14:30N 61°58' E 005°08'0 0.0
2017-Jun-21 13:30N 61°58' E 005°08'0 0.0
2017-Jun-21 13:00N 61°58' E 005°08'0 0.0
2017-Jun-21 12:30N 61°58' E 005°08'0 0.0
2017-Jun-21 11:59N 61°58' E 005°08'0 0.1
2017-Jun-21 11:29N 61°58' E 005°08'0 0.1
2017-Jun-21 11:00N 61°58' E 005°09'1 0.1
2017-Jun-20 20:46N 61°59' E 005°08'0 0.0
2017-Jun-20 13:27N 61°59' E 005°08'0 0.0
2017-Jun-20 12:38N 61°59' E 005°08'0 0.0
2017-Jun-20 08:44N 61°59' E 005°08'0 0.0
2017-Jun-19 12:51N 61°59' E 005°08'0 0.0
2017-Jun-19 12:30N 61°59' E 005°08'0 0.0
2017-Jun-19 12:00N 61°59' E 005°08'0 0.0
2017-Jun-19 11:30N 61°59' E 005°08'0 0.0
2017-Jun-19 11:00N 61°59' E 005°08'0 0.0
2017-Jun-19 10:30N 61°59' E 005°08'0 0.0
2017-Jun-19 10:00N 61°59' E 005°08'0 0.0
2017-Jun-19 09:30N 61°59' E 005°08'0 0.0
2017-Jun-19 09:00N 61°59' E 005°08'0 0.0
2017-Jun-19 08:30N 61°59' E 005°08'0 0.0
2017-Jun-19 08:00N 61°59' E 005°08'0 0.0
2017-Jun-19 07:30N 61°59' E 005°08'0 0.0
2017-Jun-19 07:00N 61°59' E 005°08'0 0.0
2017-Jun-19 06:30N 61°59' E 005°08'0 0.0
2017-Jun-19 06:00N 61°59' E 005°08'0 0.0
2017-Jun-19 05:29N 61°59' E 005°08'0 0.0
2017-Jun-19 05:00N 61°59' E 005°08'0 0.0
2017-Jun-19 04:29N 61°59' E 005°08'0 0.0
2017-Jun-19 04:00N 61°59' E 005°08'0 0.0
2017-Jun-19 03:30N 61°59' E 005°08'0 0.0
2017-Jun-19 03:00N 61°59' E 005°08'0 0.0
2017-Jun-19 02:30N 61°59' E 005°08'0 0.0
2017-Jun-19 02:00N 61°59' E 005°08'0 0.0
2017-Jun-19 01:29N 61°59' E 005°08'0 0.0
2017-Jun-19 01:00N 61°59' E 005°08'0 0.0
2017-Jun-19 00:30N 61°59' E 005°08'0 0.0
2017-Jun-19 00:00N 61°59' E 005°08'0 0.0
2017-Jun-18 23:30N 61°59' E 005°08'0 0.0
2017-Jun-18 23:00N 61°59' E 005°08'1 2.3
2017-Jun-18 22:29N 62°00' E 005°10'4 8.1
2017-Jun-18 22:00N 62°04' E 005°08'4 7.8
2017-Jun-18 21:30N 62°08' E 005°05'4 6.9
2017-Jun-18 21:00N 62°11' E 005°04'4 7.1
2017-Jun-18 20:30N 62°13' E 005°10'4 7.2
2017-Jun-18 20:00N 62°15' E 005°17'4 7.2
2017-Jun-18 19:30N 62°17' E 005°24'4 7.2
2017-Jun-18 19:00N 62°17' E 005°32'4 7.6
2017-Jun-18 18:30N 62°19' E 005°39'3 6.6
2017-Jun-18 18:00N 62°21' E 005°45'4 8.1
2017-Jun-18 17:30N 62°24' E 005°49'4 7.5
2017-Jun-18 17:00N 62°26' E 005°56'4 7.3
2017-Jun-18 16:30N 62°28' E 006°03'2 3.7
2017-Jun-18 16:00N 62°28' E 006°07'0 0.0
2017-Jun-18 15:30N 62°28' E 006°07'0 0.0
2017-Jun-18 15:00N 62°28' E 006°07'0 0.0
2017-Jun-18 14:30N 62°28' E 006°07'0 0.0
2017-Jun-18 14:00N 62°28' E 006°07'0 0.0
2017-Jun-18 13:30N 62°28' E 006°07'0 0.0
2017-Jun-18 13:00N 62°28' E 006°07'0 0.0
2017-Jun-18 12:30N 62°28' E 006°07'0 0.0
2017-Jun-18 12:00N 62°28' E 006°07'0 0.0
2017-Jun-18 11:30N 62°28' E 006°07'0 0.0
2017-Jun-18 11:00N 62°28' E 006°07'0 0.0
2017-Jun-18 10:29N 62°28' E 006°07'0 0.0
2017-Jun-18 10:00N 62°28' E 006°07'0 0.0
2017-Jun-18 09:30N 62°28' E 006°07'0 0.0
2017-Jun-18 09:00N 62°28' E 006°07'0 0.0
2017-Jun-18 08:30N 62°28' E 006°07'0 0.0
2017-Jun-18 08:00N 62°28' E 006°07'0 0.0
2017-Jun-18 07:30N 62°28' E 006°07'0 0.0
2017-Jun-18 07:00N 62°28' E 006°07'0 0.0
2017-Jun-18 06:29N 62°28' E 006°07'0 0.0
2017-Jun-18 06:00N 62°28' E 006°07'0 0.0
2017-Jun-18 05:30N 62°28' E 006°07'0 0.0
2017-Jun-18 05:00N 62°28' E 006°07'0 0.0
2017-Jun-18 04:30N 62°28' E 006°07'0 0.0
2017-Jun-18 04:00N 62°28' E 006°07'0 0.0
2017-Jun-18 03:30N 62°28' E 006°07'0 0.0
2017-Jun-18 03:00N 62°28' E 006°07'0 0.0
2017-Jun-18 02:30N 62°28' E 006°07'0 0.0
2017-Jun-18 02:00N 62°28' E 006°07'0 0.0
2017-Jun-18 01:30N 62°28' E 006°07'0 0.0
2017-Jun-18 01:00N 62°28' E 006°07'0 0.0
2017-Jun-18 00:30N 62°28' E 006°07'0 0.0
2017-Jun-18 00:00N 62°28' E 006°07'0 0.0
2017-Jun-17 23:30N 62°28' E 006°07'0 0.0
2017-Jun-17 22:59N 62°28' E 006°07'0 0.0
2017-Jun-17 22:30N 62°28' E 006°07'0 0.0
2017-Jun-17 22:00N 62°28' E 006°07'0 0.0
2017-Jun-17 21:30N 62°28' E 006°07'0 0.0
2017-Jun-17 21:00N 62°28' E 006°07'0 0.0
2017-Jun-17 20:30N 62°28' E 006°07'0 0.0
2017-Jun-17 20:00N 62°28' E 006°07'0 0.0
2017-Jun-17 19:29N 62°28' E 006°07'0 0.0
2017-Jun-17 19:00N 62°28' E 006°07'0 0.0
2017-Jun-17 18:30N 62°28' E 006°07'0 0.0
2017-Jun-17 18:00N 62°28' E 006°07'0 0.0
2017-Jun-17 17:30N 62°28' E 006°07'0 0.0
2017-Jun-17 17:00N 62°28' E 006°07'0 0.0
2017-Jun-17 16:30N 62°28' E 006°07'0 0.0
2017-Jun-17 16:00N 62°28' E 006°07'0 0.0
2017-Jun-17 15:30N 62°28' E 006°07'0 0.0
2017-Jun-17 15:00N 62°28' E 006°07'0 0.0
2017-Jun-17 14:30N 62°28' E 006°07'0 0.0
2017-Jun-17 13:30N 62°28' E 006°07'0 0.0
2017-Jun-17 13:00N 62°28' E 006°07'0 0.0
2017-Jun-17 12:30N 62°28' E 006°07'0 0.0
2017-Jun-17 12:00N 62°28' E 006°07'0 0.0
2017-Jun-17 11:30N 62°28' E 006°07'0 0.0
2017-Jun-17 11:00N 62°28' E 006°07'0 0.0
2017-Jun-17 10:30N 62°28' E 006°07'0 0.0
2017-Jun-17 10:00N 62°28' E 006°07'0 0.0
2017-Jun-17 09:30N 62°28' E 006°07'0 0.0
2017-Jun-17 09:00N 62°28' E 006°07'0 0.0
2017-Jun-17 08:30N 62°28' E 006°07'0 0.0
2017-Jun-17 08:00N 62°28' E 006°07'0 0.0
2017-Jun-17 07:29N 62°28' E 006°07'0 0.0
2017-Jun-17 07:00N 62°28' E 006°07'0 0.0
2017-Jun-17 06:30N 62°28' E 006°07'0 0.0
2017-Jun-17 06:00N 62°28' E 006°07'0 0.0
2017-Jun-17 05:30N 62°28' E 006°07'0 0.0
2017-Jun-17 05:00N 62°28' E 006°07'0 0.0
2017-Jun-17 04:29N 62°28' E 006°07'0 0.0
2017-Jun-17 04:00N 62°28' E 006°07'0 0.0
2017-Jun-17 03:30N 62°28' E 006°07'0 0.0
2017-Jun-17 03:00N 62°28' E 006°07'0 0.0
2017-Jun-17 02:30N 62°28' E 006°07'0 0.0
2017-Jun-17 02:00N 62°28' E 006°07'0 0.0
2017-Jun-17 01:30N 62°28' E 006°07'0 0.0
2017-Jun-17 01:00N 62°28' E 006°07'0 0.0
2017-Jun-17 00:30N 62°28' E 006°07'0 0.0
2017-Jun-17 00:00N 62°28' E 006°07'0 0.0
2017-Jun-16 23:30N 62°28' E 006°07'0 0.0
2017-Jun-16 23:00N 62°28' E 006°07'0 0.0
2017-Jun-16 22:30N 62°28' E 006°07'0 0.0
2017-Jun-16 22:00N 62°28' E 006°07'0 0.0
2017-Jun-16 21:30N 62°28' E 006°07'0 0.0
2017-Jun-16 20:59N 62°28' E 006°07'0 0.0
2017-Jun-16 20:30N 62°28' E 006°07'0 0.0
2017-Jun-16 20:00N 62°28' E 006°07'0 0.0
2017-Jun-16 19:30N 62°28' E 006°07'0 0.0
2017-Jun-16 19:00N 62°28' E 006°07'0 0.0
2017-Jun-16 18:30N 62°28' E 006°07'0 0.0
2017-Jun-16 18:00N 62°28' E 006°07'0 0.0
2017-Jun-16 17:30N 62°28' E 006°07'0 0.0
2017-Jun-16 17:00N 62°28' E 006°07'0 0.0
2017-Jun-16 16:30N 62°28' E 006°07'0 0.0
2017-Jun-16 16:00N 62°28' E 006°07'0 0.0
2017-Jun-16 15:30N 62°28' E 006°07'0 0.0
2017-Jun-16 15:00N 62°28' E 006°07'0 0.0
2017-Jun-16 14:00N 62°28' E 006°07'0 0.0
2017-Jun-16 13:30N 62°28' E 006°07'0 0.0
2017-Jun-16 13:00N 62°28' E 006°07'0 0.0
2017-Jun-16 12:30N 62°28' E 006°07'0 0.0
2017-Jun-16 12:00N 62°28' E 006°07'0 0.0
2017-Jun-16 11:30N 62°28' E 006°07'0 0.0
2017-Jun-16 10:59N 62°28' E 006°07'0 0.0
2017-Jun-16 10:29N 62°28' E 006°07'0 0.0
2017-Jun-16 10:00N 62°28' E 006°07'0 0.0
2017-Jun-16 09:30N 62°28' E 006°07'0 0.0
2017-Jun-16 09:00N 62°28' E 006°07'0 0.0
2017-Jun-16 08:30N 62°28' E 006°07'0 0.0
2017-Jun-16 08:00N 62°28' E 006°07'0 0.0
2017-Jun-16 07:30N 62°28' E 006°07'0 0.0
2017-Jun-16 07:00N 62°28' E 006°07'0 0.0
2017-Jun-16 06:30N 62°28' E 006°07'0 0.0
2017-Jun-16 06:00N 62°28' E 006°07'0 0.0
2017-Jun-16 05:30N 62°28' E 006°07'0 0.0
2017-Jun-16 04:59N 62°28' E 006°07'0 0.0
2017-Jun-16 04:30N 62°28' E 006°07'0 0.0
2017-Jun-16 04:00N 62°28' E 006°07'0 0.0
2017-Jun-16 03:30N 62°28' E 006°07'0 0.0
2017-Jun-16 03:00N 62°28' E 006°07'0 0.0
2017-Jun-16 02:30N 62°28' E 006°07'0 0.0
2017-Jun-16 02:00N 62°28' E 006°07'0 0.0
2017-Jun-16 01:29N 62°28' E 006°07'0 0.0
2017-Jun-16 01:00N 62°28' E 006°07'0 0.0
2017-Jun-16 00:30N 62°28' E 006°07'0 0.0
2017-Jun-16 00:00N 62°28' E 006°07'0 0.0
2017-Jun-15 23:30N 62°28' E 006°07'0 0.0
2017-Jun-15 23:00N 62°28' E 006°07'0 0.0
2017-Jun-15 22:29N 62°28' E 006°07'0 0.0
2017-Jun-15 22:00N 62°28' E 006°07'0 0.0
2017-Jun-15 21:30N 62°28' E 006°07'0 0.0
2017-Jun-15 21:00N 62°28' E 006°07'0 0.0
2017-Jun-15 20:30N 62°28' E 006°07'0 0.0
2017-Jun-15 20:00N 62°28' E 006°07'0 0.0
2017-Jun-15 19:30N 62°28' E 006°07'0 0.0
2017-Jun-15 19:00N 62°28' E 006°07'0 0.0
2017-Jun-15 18:30N 62°28' E 006°07'0 0.0
2017-Jun-15 18:00N 62°28' E 006°07'0 0.0
2017-Jun-15 17:30N 62°28' E 006°07'0 0.0
2017-Jun-15 17:00N 62°28' E 006°07'0 0.0
2017-Jun-15 16:30N 62°28' E 006°07'0 0.0
2017-Jun-15 16:00N 62°28' E 006°07'0 0.0
2017-Jun-15 15:30N 62°28' E 006°07'0 0.0
2017-Jun-15 15:00N 62°28' E 006°07'0 0.0
2017-Jun-15 14:30N 62°28' E 006°07'0 0.0
2017-Jun-15 13:30N 62°28' E 006°07'0 0.8
2017-Jun-15 12:59N 62°28' E 006°07'0 0.0
2017-Jun-15 12:30N 62°28' E 006°07'0 0.0
2017-Jun-15 12:00N 62°28' E 006°07'0 0.0
2017-Jun-15 11:30N 62°28' E 006°07'0 0.0
2017-Jun-15 11:00N 62°28' E 006°07'0 0.0
2017-Jun-15 10:30N 62°28' E 006°07'0 0.0
2017-Jun-15 09:59N 62°28' E 006°07'0 0.0
2017-Jun-15 09:29N 62°28' E 006°07'0 0.0
2017-Jun-15 09:00N 62°28' E 006°07'0 0.0
2017-Jun-15 08:30N 62°28' E 006°07'0 0.0
2017-Jun-15 08:00N 62°28' E 006°07'0 0.0
2017-Jun-15 07:30N 62°28' E 006°07'0 0.0
2017-Jun-15 07:00N 62°28' E 006°07'0 0.0
2017-Jun-15 06:30N 62°28' E 006°07'0 0.0
2017-Jun-15 06:00N 62°28' E 006°07'0 0.0
2017-Jun-15 05:30N 62°28' E 006°07'0 0.0
2017-Jun-15 04:59N 62°28' E 006°07'0 0.0
2017-Jun-15 04:30N 62°28' E 006°07'0 0.0
2017-Jun-15 04:00N 62°28' E 006°07'0 0.0
2017-Jun-15 03:29N 62°28' E 006°07'0 0.0
2017-Jun-15 03:00N 62°28' E 006°07'0 0.0
2017-Jun-15 02:30N 62°28' E 006°07'0 0.0
2017-Jun-15 02:00N 62°28' E 006°07'0 0.0
2017-Jun-15 01:30N 62°28' E 006°07'0 0.0
2017-Jun-15 01:00N 62°28' E 006°07'0 0.0
2017-Jun-15 00:30N 62°28' E 006°07'0 0.0
2017-Jun-15 00:00N 62°28' E 006°07'0 0.0
2017-Jun-14 23:30N 62°28' E 006°07'0 0.0
2017-Jun-14 23:00N 62°28' E 006°07'0 0.0
2017-Jun-14 22:30N 62°28' E 006°07'0 0.0
2017-Jun-14 22:00N 62°28' E 006°07'0 0.0
2017-Jun-14 21:30N 62°28' E 006°07'0 0.0
2017-Jun-14 20:59N 62°28' E 006°07'0 0.0
2017-Jun-14 20:30N 62°28' E 006°07'0 0.0
2017-Jun-14 20:00N 62°28' E 006°07'0 0.0
2017-Jun-14 19:29N 62°28' E 006°07'0 0.0
2017-Jun-14 19:00N 62°28' E 006°07'0 0.0
2017-Jun-14 18:30N 62°28' E 006°07'0 0.0
2017-Jun-14 18:00N 62°28' E 006°07'0 0.0
2017-Jun-14 17:30N 62°28' E 006°07'0 0.0
2017-Jun-14 17:00N 62°28' E 006°07'0 0.0
2017-Jun-14 16:30N 62°28' E 006°07'0 0.0
2017-Jun-14 16:00N 62°28' E 006°07'0 0.0
2017-Jun-14 15:29N 62°28' E 006°07'0 0.0
2017-Jun-14 15:00N 62°28' E 006°07'0 0.0
2017-Jun-14 13:59N 62°28' E 006°07'0 0.0
2017-Jun-14 13:30N 62°28' E 006°07'0 0.0
2017-Jun-14 13:00N 62°28' E 006°07'0 0.0
2017-Jun-14 12:30N 62°28' E 006°07'0 0.0
2017-Jun-14 12:00N 62°28' E 006°07'0 0.0
2017-Jun-14 11:30N 62°28' E 006°07'0 0.0
2017-Jun-14 11:00N 62°28' E 006°07'0 0.0
2017-Jun-14 10:29N 62°28' E 006°07'0 0.0
2017-Jun-14 10:00N 62°28' E 006°07'0 0.0
2017-Jun-14 09:30N 62°28' E 006°07'0 0.6
2017-Jun-14 09:00N 62°28' E 006°08'4 8.5
2017-Jun-14 08:30N 62°32' E 006°13'2 3.4
2017-Jun-14 08:00N 62°33' E 006°16'0 0.0
2017-Jun-14 07:30N 62°33' E 006°16'0 0.0
2017-Jun-14 07:00N 62°33' E 006°16'0 0.0
2017-Jun-14 06:30N 62°33' E 006°16'0 0.0
2017-Jun-14 06:00N 62°33' E 006°16'0 0.0
2017-Jun-14 05:30N 62°33' E 006°16'0 0.0
2017-Jun-14 04:59N 62°33' E 006°16'0 0.0
2017-Jun-14 04:30N 62°33' E 006°16'0 0.0
2017-Jun-14 04:00N 62°33' E 006°16'0 0.0
2017-Jun-14 03:30N 62°33' E 006°16'2 5.0
2017-Jun-14 03:00N 62°31' E 006°12'4 8.4
2017-Jun-14 02:30N 62°28' E 006°05'4 8.4
2017-Jun-14 02:00N 62°26' E 005°57'4 8.6
2017-Jun-14 01:30N 62°24' E 005°49'4 8.6
2017-Jun-14 01:00N 62°21' E 005°45'3 6.6
2017-Jun-14 00:30N 62°19' E 005°39'4 8.8
2017-Jun-14 00:00N 62°17' E 005°30'4 8.6
2017-Jun-13 23:30N 62°16' E 005°21'4 8.7
2017-Jun-13 23:00N 62°14' E 005°13'5 9.0
2017-Jun-13 22:30N 62°12' E 005°05'4 8.6
2017-Jun-13 22:00N 62°07' E 005°05'4 8.4
2017-Jun-13 21:30N 62°04' E 005°10'4 7.3
2017-Jun-13 21:00N 62°00' E 005°13'0 0.3
2017-Jun-13 20:30N 62°00' E 005°13'0 0.3
2017-Jun-13 20:00N 62°00' E 005°13'0 0.1
2017-Jun-13 19:30N 62°00' E 005°13'1 1.6
2017-Jun-13 19:00N 61°60' E 005°12'2 3.6
2017-Jun-13 18:30N 61°59' E 005°08'0 0.0
2017-Jun-13 18:00N 61°59' E 005°08'3 5.5
2017-Jun-13 17:30N 61°56' E 005°08'0 0.0
2017-Jun-13 16:59N 61°56' E 005°08'0 0.0
2017-Jun-13 16:30N 61°56' E 005°08'0 0.0
2017-Jun-13 16:00N 61°56' E 005°08'0 0.0
2017-Jun-13 15:30N 61°56' E 005°08'0 0.0
2017-Jun-13 15:00N 61°56' E 005°08'0 0.0
2017-Jun-13 14:30N 61°56' E 005°08'0 0.0
2017-Jun-13 13:30N 61°56' E 005°08'  

Dump ship's entire track history